Terminal Aerodrome Forecast
Issued by NWS Goodland, KS

Home | Current Version | Previous Version | Text Only | Print | Product List | Glossary On
Versions: 1 2 3 4 5 6 7 8 9 10 11 12 13 14
000
FTUS43 KGLD 301839 AAA
TAFGLD
TAF AMD
KGLD 301839Z 3019/3118 18019G27KT 4SM FU FEW040
     FM310300 17012KT P6SM FEW250
     FM311100 18008KT P6SM FEW250
     FM311400 25006KT P6SM FEW120
     FM311700 05008KT P6SM FEW120=

USA.gov is the U.S. government's official web portal to all federal, state and local government web resources and services.